• Join FlightAware (Why Join?)
  • Login
  • US Flag 
01:26AM EDT


 

Airport Tracker/Info


-or-


 

Live Flight TrackerFlight Track Log ✈ UAL4695 ✈ 24-May-2013 ✈ KOMA - KEWR

Flight Track Log - Related Links

Times and Time Zones

All times are in EDT time to prevent confusion due to time zone crossing. See the UAL4695 flight status page for this flight to view local times or setup timezone preferences in your user account.

Time Position Orientation Groundspeed Altitude Reporting Facility
EDT Latitude Longitude Course Direction KTS MPH feet Rate Location/Type
06:32PM 41.2906 -95.8894 84° East 156 180 1,500  Level Minneapolis Center
06:33PM 41.2681 -95.8644 140° Southeast 167 192 2,800 2,100 Climbing Minneapolis Center
06:34PM 41.2331 -95.8144 133° Southeast 207 238 5,000 2,040 Climbing Minneapolis Center
06:35PM 41.3249 -95.4517 82° East  Level FlightAware Approximate
06:35PM 41.2383 -95.7272 85° East 229 264 7,100  Level Minneapolis Center
06:36PM 41.3379 -95.3078 84° East  Level FlightAware Approximate
06:36PM 41.2517 -95.6061 82° East 257 296 9,300  Level Minneapolis Center
06:37PM 41.3490 -95.1635 84° East  Level FlightAware Approximate
06:37PM 41.2633 -95.4919 82° East 285 328 10,600  Level Minneapolis Center
06:38PM 41.2622 -95.3656 91° East 317 365 12,600 1,920 Climbing Minneapolis Center
06:39PM 41.2447 -95.2358 100° East 351 404 14,600 1,620 Climbing Minneapolis Center
06:40PM 41.2308 -95.1322 100° East 353 406 16,000 1,560 Climbing Minneapolis Center
06:41PM 41.2056 -94.9747 102° East 362 417 17,900 1,860 Climbing Minneapolis Center
06:42PM 41.1889 -94.8133 98° East 365 420 19,900 1,680 Climbing Minneapolis Center
06:43PM 41.2014 -94.6789 83° East 364 419 21,400 1,260 Climbing Minneapolis Center
06:44PM 41.2158 -94.5450 82° East 366 421 22,600 1,080 Climbing Minneapolis Center
06:45PM 41.2317 -94.4042 81° East 378 435 23,700 960 Climbing Minneapolis Center
06:46PM 41.2497 -94.2578 81° East 394 453 24,700 960 Climbing Minneapolis Center
06:47PM 41.2678 -94.1053 81° East 408 470 25,700 960 Climbing Minneapolis Center
06:48PM 41.2844 -93.9536 82° East 415 478 26,700 960 Climbing Minneapolis Center
06:49PM 41.3025 -93.8000 81° East 418 481 27,800 1,200 Climbing Minneapolis Center
06:50PM 41.3244 -93.6178 81° East 419 482 29,200 1,200 Climbing Minneapolis Center
06:51PM 41.3411 -93.4683 82° East 416 479 30,300 960 Climbing Minneapolis Center
06:53PM 41.3614 -93.2872 81° East 415 478 31,500 960 Climbing Minneapolis Center
06:54PM 41.3772 -93.1358 82° East 415 478 32,500 960 Climbing Minneapolis Center
06:55PM 41.3978 -92.9517 81° East 419 482 33,600 960 Climbing Minneapolis Center
06:56PM 41.4136 -92.7981 82° East 421 484 34,600 660 Climbing Minneapolis Center
06:57PM 41.4300 -92.6464 82° East 418 481 35,000 300 Climbing Minneapolis Center
06:57PM 41.4331 -92.6139 83° East 419 482 35,000  Level Chicago Center
06:58PM 41.4522 -92.4197 82° East 441 507 35,000  Level Chicago Center
06:59PM 41.4694 -92.2447 82° East 456 525 35,000  Level Chicago Center
07:00PM 41.4867 -92.0742 82° East 467 537 35,000  Level Chicago Center
07:01PM 41.5039 -91.9028 82° East 471 542 35,000  Level Chicago Center
07:02PM 41.5200 -91.7303 83° East 475 547 35,000  Level Chicago Center
07:03PM 41.5483 -91.5364 79° East 457 526 35,000  Level Chicago Center
07:04PM 41.6289 -91.4222 47° Northeast 435 501 35,000  Level Chicago Center
07:05PM 41.7319 -91.3575 25° Northeast 419 482 35,000  Level Chicago Center
07:06PM 41.8336 -91.2897 26° Northeast 416 479 35,000  Level Chicago Center
07:07PM 41.9342 -91.2233 26° Northeast 412 474 35,000  Level Chicago Center
07:08PM 42.0417 -91.1161 37° Northeast 416 479 35,000  Level Chicago Center
07:09PM 42.0697 -90.9600 76° East 449 517 35,000  Level Chicago Center
07:10PM 42.0486 -90.7878 99° East 474 545 35,000  Level Chicago Center
07:11PM 42.0489 -90.6164 90° East 466 536 35,000  Level Chicago Center
07:12PM 42.0500 -90.4089 90° East 470 541 35,000  Level Chicago Center
07:14PM 42.0519 -90.2333 89° East 475 547 35,000  Level Chicago Center
07:15PM 42.0500 -90.0600 91° East 472 543 35,000  Level Chicago Center
07:16PM 42.0514 -89.8644 89° East 476 548 35,000  Level Chicago Center
07:17PM 42.0506 -89.6831 90° East 484 557 35,000  Level Chicago Center
07:18PM 42.0506 -89.5011 90° East 489 563 35,000  Level Chicago Center
07:19PM 42.0503 -89.3200 90° East 489 563 35,000  Level Chicago Center
07:20PM 42.0483 -89.1403 91° East 484 557 35,000  Level Chicago Center
07:21PM 42.0464 -88.9233 91° East 484 557 35,000  Level Chicago Center
07:22PM 42.0450 -88.7436 91° East 483 556 35,000  Level Chicago Center
07:23PM 42.0419 -88.5606 91° East 489 563 35,000  Level Chicago Center
07:24PM 42.0397 -88.3819 91° East 483 556 35,000  Level Chicago Center
07:25PM 42.0372 -88.2014 91° East 483 556 35,000  Level Chicago Center
07:26PM 42.0333 -88.0233 92° East 480 552 35,000  Level Chicago Center
07:27PM 42.0292 -87.8064 91° East 481 554 35,000  Level Chicago Center
07:28PM 42.0264 -87.6261 91° East 484 557 35,000  Level Chicago Center
07:29PM 42.0219 -87.4450 92° East 485 558 35,000  Level Chicago Center
07:30PM 42.0175 -87.2647 92° East 483 556 35,000  Level Chicago Center
07:31PM 42.0128 -87.0831 92° East 487 560 35,000  Level Chicago Center
07:32PM 42.0078 -86.8681 92° East 482 555 35,000  Level Chicago Center
07:33PM 42.0019 -86.6861 92° East 480 552 35,000  Level Chicago Center
07:34PM 41.9956 -86.5050 93° East 484 557 35,000  Level Chicago Center
07:35PM 41.9906 -86.3272 92° East 480 552 35,000  Level Chicago Center
07:36PM 41.9842 -86.1478 93° East 480 552 35,000  Level Chicago Center
07:37PM 41.9786 -85.9675 92° East 482 555 35,000  Level Chicago Center
07:38PM 41.9717 -85.7889 93° East 479 551 35,000  Level Chicago Center
07:39PM 41.9656 -85.6089 93° East 480 552 35,000  Level Chicago Center
07:40PM 41.9581 -85.3911 93° East 482 555 35,000  Level Chicago Center
07:41PM 41.9514 -85.2100 93° East 482 555 35,000  Level Chicago Center
07:43PM 41.9517 -85.0308 90° East 480 552 35,000  Level Chicago Center
07:44PM 41.9506 -84.8511 90° East 482 555 35,000  Level Chicago Center
07:45PM 41.9481 -84.6708 91° East 481 554 35,000  Level Chicago Center
07:46PM 41.9472 -84.4911 90° East 481 554 35,000  Level Chicago Center
07:47PM 41.9453 -84.3133 91° East 478 550 35,000  Level Chicago Center
07:48PM 41.9425 -84.0983 91° East 480 552 35,000  Level Chicago Center
07:49PM 41.9408 -83.9206 91° East 477 549 35,000  Level Chicago Center
07:50PM 41.9347 -83.7625 93° East 477 549 35,000  Level Cleveland Center
07:51PM 41.9331 -83.5839 91° East 482 555 35,000  Level Cleveland Center
07:52PM 41.9336 -83.4050 90° East 477 549 35,000  Level Cleveland Center
07:53PM 41.9319 -83.2153 91° East 469 540 35,000  Level Cleveland Center
07:54PM 41.9317 -83.0394 90° East 469 540 35,000  Level Cleveland Center
07:55PM 41.9289 -82.8633 91° East 469 540 35,000  Level Cleveland Center
07:56PM 41.9281 -82.6875 90° East 469 540 35,000  Level Cleveland Center
07:57PM 41.9269 -82.5144 90° East 464 534 35,000  Level Cleveland Center
07:58PM 41.9236 -82.3414 91° East 464 534 35,000  Level Cleveland Center
07:59PM 41.9219 -82.1656 91° East 459 528 35,000  Level Cleveland Center
08:00PM 41.9200 -81.9925 91° East 459 528 35,000  Level Cleveland Center
08:01PM 41.9156 -81.8361 92° East 464 534 35,000  Level Cleveland Center
08:02PM 41.9008 -81.6600 96° East 464 534 35,000  Level Cleveland Center
08:03PM 41.8856 -81.4839 97° East 469 540 35,000  Level Cleveland Center
08:04PM 41.8700 -81.3081 97° East 469 540 35,000  Level Cleveland Center
08:05PM 41.8503 -81.1128 98° East 474 545 35,000  Level Cleveland Center
08:06PM 41.8344 -80.9372 97° East 474 545 35,000  Level Cleveland Center
08:07PM 41.8181 -80.7614 97° East 474 545 35,000  Level Cleveland Center
08:08PM 41.7994 -80.5858 98° East 474 545 35,000  Level Cleveland Center
08:09PM 41.7828 -80.4078 97° East 479 551 35,000  Level Cleveland Center
08:10PM 41.7656 -80.2325 97° East 484 557 35,000  Level Cleveland Center
08:11PM 41.7461 -80.0572 98° East 484 557 35,000  Level Cleveland Center
08:12PM 41.7286 -79.8792 97° East 484 557 35,000  Level Cleveland Center
08:13PM 41.7108 -79.7264 99° East 478 550 35,000  Level Cleveland Center
08:14PM 41.6947 -79.5542 97° East 473 544 35,000  Level Cleveland Center
08:15PM 41.6767 -79.3878 98° East 461 531 35,000  Level Cleveland Center
08:16PM 41.6600 -79.2131 97° East 461 531 35,000  Level Cleveland Center
08:17PM 41.6369 -79.0383 100° East 467 537 35,000  Level Cleveland Center
08:18PM 41.6178 -78.8639 98° East 472 543 35,000  Level Cleveland Center
08:19PM 41.5964 -78.6922 99° East 472 543 35,000  Level Cleveland Center
08:20PM 41.5767 -78.5153 98° East 472 543 35,000  Level Cleveland Center
08:21PM 41.5567 -78.3411 99° East 472 543 35,000 -240 Level Cleveland Center
08:22PM 41.5364 -78.1669 99° East 472 543 34,600 -900 Descending Cleveland Center
08:22PM 41.5217 -78.0419 99° East 463 533 33,500 -1,620 Descending New York Center
08:23PM 41.5006 -77.8733 99° East 469 540 31,900 -1,320 Descending New York Center
08:24PM 41.4769 -77.7100 101° East 469 540 31,000 -480 Descending New York Center
08:25PM 41.4492 -77.5439 103° East 458 527 31,000 -120 Level New York Center
08:26PM 41.4197 -77.3969 105° East 458 527 30,800 -360 Descending New York Center
08:27PM 41.3850 -77.2361 106° East 458 527 30,400 -480 Descending New York Center
08:28PM 41.3522 -77.0697 105° East 458 527 29,900 -600 Descending New York Center
08:29PM 41.3208 -76.9122 105° East 453 521 29,200 -1,320 Descending New York Center
08:30PM 41.2875 -76.7489 105° East 453 521 27,400 -1,920 Descending New York Center
08:31PM 41.2536 -76.5914 106° East 447 514 25,300 -2,460 Descending New York Center
08:32PM 41.2197 -76.4311 106° East 437 503 22,500 -2,640 Descending New York Center
08:33PM 41.1911 -76.2881 105° East 415 478 20,200 -2,280 Descending New York Center
08:34PM 41.1658 -76.1619 105° East 396 456 18,000 -2,040 Descending New York Center
08:35PM 41.1364 -76.0247 106° East 380 437 16,200 -1,860 Descending New York Center
08:36PM 41.0967 -75.8839 110° East 374 430 14,300 -1,560 Descending New York Center
08:37PM 41.0608 -75.7519 110° East 374 430 13,100 -660 Descending New York Center
08:38PM 41.0300 -75.6422 110° East 374 430 13,000 -180 Descending New York Center
08:39PM 40.9917 -75.5075 111° Southeast 360 414 12,800 -960 Descending New York Center
08:40PM 40.9589 -75.3900 110° East 353 406 11,100 -1,440 Descending New York Center
08:41PM 40.9294 -75.2836 110° East 330 380 10,000 -1,200 Descending New York Center
08:42PM 40.9022 -75.1828 110° East 296 341 8,800 -1,140 Descending New York Center
08:43PM 40.8761 -75.0933 111° Southeast 289 333 7,800 -960 Descending New York Center
08:44PM 40.8503 -75.0011 110° East 283 326 7,000 -420 Descending New York Center
08:45PM 40.8722 -74.9175 71° East 221 254 7,000 -360 Level New York Center
08:46PM 40.8789 -74.8411 83° East 226 260 6,300 -540 Descending New York Center
08:47PM 40.8758 -74.7475 92° East 226 260 6,000 -180 Descending New York Center
08:48PM 40.8742 -74.6733 92° East 231 266 6,000  Level New York Center
08:49PM 40.8392 -74.5944 120° Southeast 230 265 6,000 -300 Level New York Center
08:50PM 40.7789 -74.5967 182° South 208 239 5,400 -600 Descending New York Center
08:51PM 40.7333 -74.6000 183° South 240 276 5,000 -240 Descending New York TRACON
08:52PM 40.6500 -74.6000 180° South 245 282 5,000  Level New York TRACON
08:53PM 40.5833 -74.5833 169° South 249 287 5,000 -60 Level New York TRACON
08:54PM 40.5167 -74.5500 159° South 248 285 4,900 -360 Descending New York TRACON
08:56PM 40.4000 -74.4667 151° Southeast 234 269 4,000 -600 Descending New York TRACON
08:57PM 40.4000 -74.4000 90° East 195 224 3,100 -540 Descending New York TRACON
08:58PM 40.4167 -74.3333 72° East 186 214 3,000 -60 Descending New York TRACON
08:59PM 40.4667 -74.3167 14° North 151 174 3,000  Level New York TRACON
09:00PM 40.5000 -74.2833 37° Northeast 158 182 3,000  Level New York TRACON